Weather at Al Bateen Palace West Helipad

Public forecast

Using degrees Celsius for public forecast. Weather courtesy of forecast.io.

Closest aviation weather report (METAR) to Al Bateen Palace West Helipad

Closest report is Al Bateen Executive Airport, 5.7 nm (10.6 km) E.

2024/05/21 17:00 (retrieved 35 minutes ago)

OMAD 211700Z VRB02KT CAVOK 30/23 Q1005 NOSIG

Closest aviation forecast (TAF) to Al Bateen Palace West Helipad

Closest forecast is Al Bateen Executive Airport, 5.7 nm (10.6 km) E.

2024/05/21 12:00 (retrieved 6 hours ago)

TAF OMAD 211100Z 2112/2218 30011KT CAVOK BECMG 2116/2118 VRB02KT PROB30 2200/2204 4000 HZ BECMG 2207/2209 33010KT BECMG 2216/2218 05005KT